Terminal Aerodrome Forecast
Issued by NWS

Home | Current Version | Previous Version | Text Only | Print | Product List | Glossary On
Versions: 1 2 3 4 5 6 7 8 9 10 11 12 13 14 15 16 17 18 19 20 21
000
FTUS46 KMTR 231720
TAFSNS
TAF
KSNS 231720Z 2318/2418 28003KT P6SM OVC008
     FM231900 29006KT P6SM SCT010
     FM232000 28013KT P6SM FEW010
     FM240200 30009KT P6SM OVC007
     FM241000 28005KT 6SM BR OVC004=

USA.gov is the U.S. government's official web portal to all federal, state and local government web resources and services.